Airfield :
LOGIN :

Register | Disclaimer

   EN    FR    IT 

 










Legend :    VFR   Marginal VFR   IFR   Intensive IFR   Very Intensive IFR
Visi :
Ceiling :
>= 8 km
>= 3000ft
5 to 8 km
1000 to 3000 ft
1500m to 5 km
500 to 1000 ft
800 to 1500m
200 to 500 ft
< 800m
< 200 ft
Symbols :   Thunderstorms  Fog  Heavy snow  Heavy precipitations  Wind > 20 kt
SIGMETs :     Misc.  Thunderstorms  Icing  Turbulence  Mountain Waves  Volcanic Ashes






- Airport Elevation : 245 ft
- IATA code : BIQ


LFBZ - Biarritz

CURRENT METAR :
  • 271530Z AUTO 24007KT 200V280 9999 FEW009 OVC018 14/14 Q1023 NOSIG

EXPIRED METARs :
  • 271500Z AUTO 25007KT 220V280 9000 -RA BKN003 BKN007 OVC014 13/13 Q1023 BECMG BKN020
  • 271430Z AUTO 25009KT 220V280 6000 -RA OVC002 13/13 Q1023 BECMG BKN020
  • 271400Z AUTO 25009KT 210V280 1400 R09/1400U R27/P2000 -DZ BR OVC002/// ///TCU 13/13 Q1023 BECMG 9999 NSW BKN007
  • 271330Z AUTO 25008KT 210V290 2200 1200 R09/1700D R27/1600D -RADZ BR OVC002 13/13 Q1023 BECMG 9999 NSW BKN007
  • 271300Z AUTO 25006KT 210V290 1600 1300 R09/1200U R27/1600U BR OVC002 13/13 Q1024 TEMPO VV/// BECMG 9999 NSW

TAF TAF LFBZ
Valid from the 27 at 12:00 until the 28 at 12:00 UTC


271100Z 2712/2812 26012KT 3000 -RADZ BR OVC004
TEMPO 2712/2714 0500 -RADZ FG VV///
BECMG 2714/2716 9999 NSW BKN007
BECMG 2716/2718 20005KT BKN020
BECMG 2723/2801 CAVOK
PROB30
TEMPO 2802/2808 4000 MIFG



MET'MAP, your aeronautical weather chart ! - Copyright ORBIFLY December 2007 - Disclaimer

ORBIFLY MET'MAP TEAM :

Programming & Development : Alexandra Zaïnal
Concept & original design : Baudouin d'Aumeries
Assistance for programming : Marc-Olivier Méhu
Technical & hardware support : Manuel Goepfert

Contact : metmap@orbifly.com




SOURCES & CREDITS :

   NOAA